Time;durP1;ratioP1;P1;durP2;ratioP2;P2;SDS_P1;SDS_P2;PMS_P1;PMS_P2;Temp;Humidity;BMP_temperature;BMP_pressure;BME280_temperature;BME280_humidity;BME280_pressure;Samples;Min_cycle;Max_cycle;Signal;HPM_P1;HPM_P2
2023/01/25 00:01:06;;;;;;;;;;;;;;;18.01;59.89;103156.56;2323180;76;50664;-75
2023/01/25 00:04:07;;;;;;;;;;;;;;;18.01;59.88;103155.72;2324279;76;51439;-75
2023/01/25 00:07:09;;;;;;;;;;;;;;;17.97;59.94;103143.52;2321547;75;52408;-75
2023/01/25 00:10:10;;;;;;;;;;;;;;;17.92;59.98;103133.15;2339806;75;50026;-74
2023/01/25 00:13:12;;;;;;;;;;;;;;;17.86;60.14;103123.41;2344360;76;49690;-75
2023/01/25 00:16:13;;;;;;;;;;;;;;;17.80;60.36;103125.59;2376217;74;50208;-75
2023/01/25 00:19:15;;;;;;;;;;;;;;;17.79;60.48;103113.61;2353457;74;50137;-75
2023/01/25 00:22:17;;;;;;;;;;;;;;;17.83;60.47;103107.09;2371982;74;51609;-74
2023/01/25 00:25:18;;;;;;;;;;;;;;;17.93;60.29;103108.09;2344580;75;51531;-74
2023/01/25 00:28:20;;;;;;;;;;;;;;;17.99;60.11;103096.89;2371912;74;51509;-74
2023/01/25 00:31:23;;;;;;;;;;;;;;;17.99;60.04;103082.16;2346651;75;51016;-74
2023/01/25 00:34:28;;;;;;;;;;;;;;;17.98;60.04;103073.77;2343988;75;50626;-74
2023/01/25 00:37:30;;;;;;;;;;;;;;;17.97;60.11;103073.38;2350246;74;50464;-74
2023/01/25 00:40:32;;;;;;;;;;;;;;;17.93;60.24;103066.58;2356946;74;50081;-73
2023/01/25 00:43:33;;;;;;;;;;;;;;;17.90;60.32;103052.55;2324724;74;49579;-73
2023/01/25 00:46:35;;;;;;;;;;;;;;;17.87;60.41;103036.72;2344631;76;50223;-73
2023/01/25 00:49:36;;;;;;;;;;;;;;;17.82;60.43;103035.73;2356204;74;50695;-74
2023/01/25 00:52:39;;;;;;;;;;;;;;;17.76;60.56;103030.34;2385591;74;50381;-74
2023/01/25 00:55:40;;;;;;;;;;;;;;;17.74;60.74;103030.95;2392742;74;52356;-74
2023/01/25 00:58:42;;;;;;;;;;;;;;;17.73;60.88;103025.23;2392831;74;50344;-73
2023/01/25 01:01:43;;;;;;;;;;;;;;;17.77;60.89;103027.17;2389907;74;50258;-74
2023/01/25 01:04:45;;;;;;;;;;;;;;;17.83;60.84;103022.73;2392653;74;50362;-75
2023/01/25 01:07:48;;;;;;;;;;;;;;;17.91;60.69;103029.67;2368423;74;51777;-75
2023/01/25 01:10:50;;;;;;;;;;;;;;;18.00;60.53;103033.44;2354903;74;51579;-74
2023/01/25 01:21:07;;;;;;;;;;;;;;;18.03;60.34;103042.11;2331956;75;22378;-75
2023/01/25 01:24:10;;;;;;;;;;;;;;;18.00;60.37;103034.28;2376382;74;51399;-75
2023/01/25 01:27:11;;;;;;;;;;;;;;;17.98;60.47;103040.74;2361798;74;51487;-75
2023/01/25 01:30:13;;;;;;;;;;;;;;;17.93;60.59;103032.21;2361732;74;50713;-76
2023/01/25 01:33:14;;;;;;;;;;;;;;;17.88;60.76;103035.73;2288410;76;50026;-76
2023/01/25 01:36:16;;;;;;;;;;;;;;;17.84;60.76;103033.31;2322684;75;51403;-75
2023/01/25 01:39:18;;;;;;;;;;;;;;;17.79;60.92;103034.15;2346116;74;50695;-75
2023/01/25 01:42:19;;;;;;;;;;;;;;;17.76;61.08;103032.18;2341948;75;51587;-75
2023/01/25 01:45:39;;;;;;;;;;;;;;;17.79;61.11;103022.56;2334325;76;52847;-75
2023/01/25 01:48:43;;;;;;;;;;;;;;;17.89;60.95;103027.59;2321422;75;50271;-75
2023/01/25 01:51:52;;;;;;;;;;;;;;;17.96;60.74;103028.83;2354289;75;51435;-75
2023/01/25 01:54:58;;;;;;;;;;;;;;;17.96;60.74;103027.48;2361369;75;50421;-75
2023/01/25 01:58:02;;;;;;;;;;;;;;;17.95;60.79;103021.75;2322378;76;51216;-75
2023/01/25 02:01:03;;;;;;;;;;;;;;;17.93;60.79;103019.70;2337917;75;22380;-75
2023/01/25 02:04:05;;;;;;;;;;;;;;;17.91;60.83;103018.11;2375928;74;50627;-75
2023/01/25 02:07:10;;;;;;;;;;;;;;;17.87;60.77;103014.80;2356083;74;50380;-75
2023/01/25 02:10:11;;;;;;;;;;;;;;;17.84;60.86;103015.05;2325874;75;53015;-75
2023/01/25 02:13:13;;;;;;;;;;;;;;;17.80;60.92;103023.83;2358634;74;50643;-75
2023/01/25 02:16:15;;;;;;;;;;;;;;;17.77;60.97;103025.34;2374950;74;51436;-75
2023/01/25 02:19:19;;;;;;;;;;;;;;;17.74;61.07;103020.23;2359375;75;51538;-75
2023/01/25 02:22:21;;;;;;;;;;;;;;;17.73;61.23;103015.02;2331793;76;52225;-75
2023/01/25 02:25:23;;;;;;;;;;;;;;;17.75;61.29;103011.71;2309102;76;50585;-75
2023/01/25 02:28:26;;;;;;;;;;;;;;;17.81;61.12;103009.94;2309323;76;50291;-75
2023/01/25 02:31:28;;;;;;;;;;;;;;;17.89;60.99;103004.83;2328075;75;51543;-75
2023/01/25 02:34:29;;;;;;;;;;;;;;;17.94;60.83;103001.30;2333944;76;52395;-75
2023/01/25 02:37:31;;;;;;;;;;;;;;;17.97;60.65;103007.75;2349492;74;51439;-75
2023/01/25 02:40:32;;;;;;;;;;;;;;;17.97;60.60;103005.07;2315140;76;50010;-75
2023/01/25 02:43:34;;;;;;;;;;;;;;;17.96;60.60;103008.73;2323087;75;51533;-75
2023/01/25 02:46:36;;;;;;;;;;;;;;;17.94;60.69;103008.00;2334435;75;51104;-76
2023/01/25 02:49:38;;;;;;;;;;;;;;;17.91;60.73;102992.17;2334324;76;50912;-75
2023/01/25 02:52:39;;;;;;;;;;;;;;;17.87;60.83;102997.89;2321900;75;51438;-75
2023/01/25 02:55:41;;;;;;;;;;;;;;;17.85;60.85;102995.32;2334443;76;50613;-76
2023/01/25 02:58:42;;;;;;;;;;;;;;;17.81;60.88;102992.05;2307988;76;51281;-76
2023/01/25 03:01:44;;;;;;;;;;;;;;;17.76;61.04;102986.66;2323604;75;50432;-76
2023/01/25 03:04:46;;;;;;;;;;;;;;;17.74;61.20;102985.92;2376499;74;50272;-75
2023/01/25 03:07:47;;;;;;;;;;;;;;;17.76;61.22;102982.15;2356409;75;50345;-76
2023/01/25 03:10:49;;;;;;;;;;;;;;;17.82;61.22;102979.00;2304184;76;52338;-75
2023/01/25 03:13:50;;;;;;;;;;;;;;;17.91;61.09;102982.80;2326404;75;50022;-76
2023/01/25 03:16:52;;;;;;;;;;;;;;;17.96;60.91;102980.61;2344785;76;50297;-76
2023/01/25 03:19:54;;;;;;;;;;;;;;;17.96;60.87;102977.93;2344823;76;50390;-75
2023/01/25 03:22:55;;;;;;;;;;;;;;;17.97;60.80;102974.76;2347238;74;51156;-76
2023/01/25 03:25:59;;;;;;;;;;;;;;;17.92;60.95;102975.12;2350294;75;50266;-76
2023/01/25 03:29:00;;;;;;;;;;;;;;;17.90;61.00;102971.70;2344957;75;50367;-75
2023/01/25 03:32:02;;;;;;;;;;;;;;;17.86;61.08;102970.26;2358873;74;50643;-76
2023/01/25 03:35:04;;;;;;;;;;;;;;;17.84;61.08;102965.51;2381873;74;51099;-75
2023/01/25 03:38:05;;;;;;;;;;;;;;;17.78;61.08;102962.80;2327785;76;51618;-75
2023/01/25 03:41:07;;;;;;;;;;;;;;;17.75;61.18;102956.36;2316658;75;51455;-75
2023/01/25 03:44:12;;;;;;;;;;;;;;;17.73;61.32;102957.45;2347718;75;50792;-75
2023/01/25 03:47:13;;;;;;;;;;;;;;;17.74;61.36;102953.78;2336203;75;52487;-75
2023/01/25 03:50:15;;;;;;;;;;;;;;;17.76;61.41;102953.19;2324895;76;50280;-75
2023/01/25 03:53:26;;;;;;;;;;;;;;;17.82;61.33;102956.73;2325966;74;51551;-74
2023/01/25 03:56:20;;;;;;;;;;;;;;;17.90;61.19;102957.47;2329583;74;22722;-75
2023/01/25 03:59:22;;;;;;;;;;;;;;;17.95;60.97;102952.10;2324917;75;51684;-75
2023/01/25 04:02:23;;;;;;;;;;;;;;;17.98;60.88;102951.87;2344441;75;50282;-75
2023/01/25 04:05:25;;;;;;;;;;;;;;;17.96;60.87;102941.77;2348426;74;50257;-75
2023/01/25 04:08:26;;;;;;;;;;;;;;;17.94;60.91;102945.05;2360016;74;50651;-75
2023/01/25 04:11:28;;;;;;;;;;;;;;;17.92;60.93;102934.94;2358243;74;52713;-75
2023/01/25 04:14:29;;;;;;;;;;;;;;;17.87;60.97;102931.78;2383914;73;51450;-75
2023/01/25 04:17:31;;;;;;;;;;;;;;;17.84;61.05;102925.33;2334305;75;51524;-75
2023/01/25 04:20:33;;;;;;;;;;;;;;;17.82;61.08;102923.27;2350460;75;51426;-75
2023/01/25 04:23:34;;;;;;;;;;;;;;;17.78;61.19;102908.40;2324759;76;51242;-75
2023/01/25 04:26:36;;;;;;;;;;;;;;;17.75;61.36;102903.27;2344070;74;50335;-75
2023/01/25 04:29:37;;;;;;;;;;;;;;;17.74;61.51;102897.55;2393263;74;50717;-75
2023/01/25 04:32:39;;;;;;;;;;;;;;;17.78;61.53;102899.88;2393159;74;50653;-75
2023/01/25 04:35:41;;;;;;;;;;;;;;;17.88;61.33;102891.98;2379145;74;51204;-76
2023/01/25 04:38:42;;;;;;;;;;;;;;;17.94;61.06;102893.31;2356689;74;50639;-76
2023/01/25 04:41:44;;;;;;;;;;;;;;;17.95;61.04;102888.31;2369576;74;51425;-76
2023/01/25 04:44:45;;;;;;;;;;;;;;;17.94;61.01;102890.14;2324944;76;51513;-76
2023/01/25 04:47:47;;;;;;;;;;;;;;;17.93;61.05;102884.90;2313557;74;51005;-77
2023/01/25 04:50:48;;;;;;;;;;;;;;;17.89;61.08;102884.80;2385817;74;51435;-76
2023/01/25 04:53:50;;;;;;;;;;;;;;;17.87;61.07;102880.05;2344823;76;50344;-76
2023/01/25 04:56:51;;;;;;;;;;;;;;;17.81;61.12;102876.05;2364693;74;49677;-76
2023/01/25 04:59:53;;;;;;;;;;;;;;;17.77;61.19;102873.20;2333058;75;51693;-76
2023/01/25 05:02:55;;;;;;;;;;;;;;;17.75;61.26;102868.45;2345222;76;50676;-75
2023/01/25 05:05:56;;;;;;;;;;;;;;;17.70;61.39;102866.17;2325419;76;51458;-76
2023/01/25 05:08:58;;;;;;;;;;;;;;;17.70;61.49;102862.61;2325439;76;51441;-76
2023/01/25 05:11:59;;;;;;;;;;;;;;;17.73;61.53;102863.73;2336580;75;52260;-76
2023/01/25 05:15:01;;;;;;;;;;;;;;;17.79;61.46;102859.20;2334142;75;50283;-75
2023/01/25 05:18:03;;;;;;;;;;;;;;;17.87;61.32;102859.47;2359591;75;51945;-76
2023/01/25 05:21:04;;;;;;;;;;;;;;;17.95;61.09;102852.99;2334292;75;51436;-76
2023/01/25 05:24:06;;;;;;;;;;;;;;;17.97;60.99;102853.73;2318615;76;50050;-76
2023/01/25 05:27:08;;;;;;;;;;;;;;;17.98;60.90;102851.43;2309315;76;50054;-76
2023/01/25 05:30:10;;;;;;;;;;;;;;;17.98;60.87;102846.53;2321616;76;51457;-76
2023/01/25 05:33:11;;;;;;;;;;;;;;;17.95;60.92;102841.44;2316346;75;50662;-76
2023/01/25 05:36:13;;;;;;;;;;;;;;;17.90;61.16;102852.52;2344648;75;52415;-76
2023/01/25 05:39:15;;;;;;;;;;;;;;;17.87;61.18;102847.91;2377225;74;51490;-74
2023/01/25 05:42:17;;;;;;;;;;;;;;;17.85;61.25;102852.03;2328827;74;50199;-76
2023/01/25 05:45:18;;;;;;;;;;;;;;;17.82;61.15;102854.48;2356405;75;52427;-74
2023/01/25 05:48:20;;;;;;;;;;;;;;;17.74;61.32;102858.23;2377341;74;52314;-75
2023/01/25 05:51:22;;;;;;;;;;;;;;;17.72;61.33;102857.50;2376892;74;50433;-74
2023/01/25 05:54:23;;;;;;;;;;;;;;;17.76;61.27;102856.78;2339619;75;51502;-74
2023/01/25 05:57:27;;;;;;;;;;;;;;;17.83;61.06;102859.38;2334852;76;51544;-75
2023/01/25 06:00:28;;;;;;;;;;;;;;;17.90;60.80;102851.18;2334444;76;22469;-75
2023/01/25 06:03:30;;;;;;;;;;;;;;;17.90;60.69;102853.86;2321274;76;50271;-74
2023/01/25 06:06:31;;;;;;;;;;;;;;;17.91;60.62;102856.07;2321498;76;50320;-74
2023/01/25 06:09:33;;;;;;;;;;;;;;;17.89;60.57;102842.80;2321535;76;50505;-76
2023/01/25 06:12:35;;;;;;;;;;;;;;;17.87;60.53;102838.04;2324319;75;51831;-74
2023/01/25 06:15:37;;;;;;;;;;;;;;;17.84;60.53;102834.28;2310615;76;50441;-75
2023/01/25 06:18:38;;;;;;;;;;;;;;;17.79;60.48;102833.30;2321754;76;50610;-75
2023/01/25 06:21:40;;;;;;;;;;;;;;;17.76;60.21;102834.88;2313087;75;50133;-76
2023/01/25 06:24:42;;;;;;;;;;;;;;;17.70;60.36;102835.84;2348645;75;51028;-78
2023/01/25 06:27:43;;;;;;;;;;;;;;;17.68;60.58;102826.61;2349066;75;51704;-76
2023/01/25 06:30:45;;;;;;;;;;;;;;;17.69;60.45;102817.59;2321652;75;51498;-75
2023/01/25 06:33:50;;;;;;;;;;;;;;;17.72;60.36;102821.84;2322002;76;50239;-74
2023/01/25 06:36:52;;;;;;;;;;;;;;;17.79;60.31;102820.38;2322860;76;51547;-74
2023/01/25 06:39:53;;;;;;;;;;;;;;;17.84;60.21;102827.59;2312956;75;49989;-74
2023/01/25 06:42:55;;;;;;;;;;;;;;;17.90;60.06;102828.91;2345426;74;50413;-76
2023/01/25 06:46:01;;;;;;;;;;;;;;;17.94;59.94;102835.23;2297810;76;50267;-75
2023/01/25 06:49:03;;;;;;;;;;;;;;;17.97;59.85;102828.77;2297290;75;52382;-74
2023/01/25 06:52:04;;;;;;;;;;;;;;;17.98;59.88;102831.80;2297868;76;51464;-76
2023/01/25 06:55:07;;;;;;;;;;;;;;;17.94;59.91;102821.84;2357844;75;50634;-76
2023/01/25 06:58:08;;;;;;;;;;;;;;;17.91;59.97;102812.72;2362452;75;50434;-76
2023/01/25 07:01:11;;;;;;;;;;;;;;;17.90;60.01;102806.14;2376768;74;50754;-75
2023/01/25 07:04:13;;;;;;;;;;;;;;;17.87;59.95;102794.34;2338708;74;50370;-75
2023/01/25 07:07:14;;;;;;;;;;;;;;;17.84;59.90;102793.61;2336614;75;50125;-78
2023/01/25 07:10:16;;;;;;;;;;;;;;;17.83;59.82;102789.74;2352344;75;50790;-75
2023/01/25 07:13:18;;;;;;;;;;;;;;;17.79;59.93;102793.60;2352882;75;51207;-75
2023/01/25 07:16:20;;;;;;;;;;;;;;;17.74;60.10;102790.45;2373976;75;50665;-76
2023/01/25 07:19:22;;;;;;;;;;;;;;;17.78;60.06;102782.55;2374150;75;50699;-76
2023/01/25 07:22:23;;;;;;;;;;;;;;;17.84;60.02;102791.44;2373814;75;50172;-76
2023/01/25 07:25:25;;;;;;;;;;;;;;;17.89;59.88;102786.55;2378314;74;50097;-74
2023/01/25 07:28:26;;;;;;;;;;;;;;;17.92;59.35;102792.98;2378513;74;51686;-73
2023/01/25 07:31:28;;;;;;;;;;;;;;;17.93;59.39;102781.31;2373660;75;51569;-72
2023/01/25 07:34:30;;;;;;;;;;;;;;;17.94;59.28;102776.80;2373740;75;51589;-73
2023/01/25 07:37:33;;;;;;;;;;;;;;;17.95;59.18;102778.00;2344581;75;52453;-74
2023/01/25 07:40:34;;;;;;;;;;;;;;;17.96;59.11;102774.86;2344941;74;51504;-74
2023/01/25 07:43:36;;;;;;;;;;;;;;;17.96;59.05;102769.00;2315484;75;50419;-74
2023/01/25 07:46:38;;;;;;;;;;;;;;;17.97;59.00;102757.80;2341044;75;49962;-73
2023/01/25 07:49:39;;;;;;;;;;;;;;;17.95;58.98;102766.44;2354428;75;51491;-73
2023/01/25 07:52:41;;;;;;;;;;;;;;;17.95;58.89;102761.92;2360053;74;50229;-73
2023/01/25 07:55:42;;;;;;;;;;;;;;;17.98;58.82;102757.67;2360173;74;50654;-73
2023/01/25 07:58:44;;;;;;;;;;;;;;;17.99;58.88;102755.34;2356517;74;50741;-72
2023/01/25 08:01:46;;;;;;;;;;;;;;;18.07;58.88;102756.05;2333412;76;50455;-73
2023/01/25 08:04:47;;;;;;;;;;;;;;;18.11;58.93;102744.58;2333188;75;51494;-73
2023/01/25 08:07:49;;;;;;;;;;;;;;;18.13;59.24;102746.64;2328887;75;50245;-72
2023/01/25 08:10:50;;;;;;;;;;;;;;;18.17;59.38;102745.42;2360147;75;50810;-72
2023/01/25 08:13:52;;;;;;;;;;;;;;;18.19;59.51;102737.61;2317188;75;51592;-72
2023/01/25 08:16:54;;;;;;;;;;;;;;;18.24;59.60;102742.59;2344562;75;50514;-72
2023/01/25 08:19:55;;;;;;;;;;;;;;;18.19;59.69;102740.78;2344676;76;50454;-74
2023/01/25 08:22:57;;;;;;;;;;;;;;;18.15;59.83;102733.97;2344539;76;50652;-73
2023/01/25 08:26:05;;;;;;;;;;;;;;;18.12;59.80;102730.22;2323922;76;51142;-73
2023/01/25 08:29:07;;;;;;;;;;;;;;;18.11;59.78;102733.86;2344407;76;51465;-73
2023/01/25 08:32:08;;;;;;;;;;;;;;;18.05;59.71;102726.70;2324540;76;51452;-75
2023/01/25 08:35:10;;;;;;;;;;;;;;;18.05;59.65;102727.19;2344830;76;50333;-75
2023/01/25 08:38:12;;;;;;;;;;;;;;;17.98;59.73;102722.86;2333409;74;51337;-75
2023/01/25 08:41:14;;;;;;;;;;;;;;;18.04;59.51;102724.16;2366510;74;50437;-77
2023/01/25 08:44:21;;;;;;;;;;;;;;;18.04;59.42;102721.48;2344398;76;51484;-75
2023/01/25 08:47:19;;;;;;;;;;;;;;;18.06;59.37;102719.53;2299969;77;22269;-75
2023/01/25 08:50:21;;;;;;;;;;;;;;;18.10;59.30;102724.97;2260232;77;51073;-75
2023/01/25 08:53:22;;;;;;;;;;;;;;;18.15;59.05;102716.55;2260221;77;49942;-76
2023/01/25 08:56:24;;;;;;;;;;;;;;;18.11;59.13;102716.44;2260340;77;50247;-76
2023/01/25 08:59:26;;;;;;;;;;;;;;;18.07;59.18;102717.20;2288644;77;50272;-74
2023/01/25 09:02:27;;;;;;;;;;;;;;;18.02;59.23;102714.91;2259922;77;52490;-75
2023/01/25 09:05:29;;;;;;;;;;;;;;;18.01;59.22;102722.59;2260089;77;50198;-75
2023/01/25 09:08:30;;;;;;;;;;;;;;;18.00;59.20;102724.89;2300804;76;50285;-75
2023/01/25 09:11:33;;;;;;;;;;;;;;;18.00;59.15;102723.55;2289070;76;50472;-76
2023/01/25 09:14:35;;;;;;;;;;;;;;;17.97;59.14;102718.95;2256373;78;50160;-75
2023/01/25 09:17:37;;;;;;;;;;;;;;;17.89;59.31;102724.95;2283471;78;51574;-76
2023/01/25 09:20:39;;;;;;;;;;;;;;;17.87;59.34;102721.55;2283433;78;51700;-75
2023/01/25 09:23:43;;;;;;;;;;;;;;;17.93;59.10;102718.37;2253017;78;51449;-75
2023/01/25 09:26:44;;;;;;;;;;;;;;;17.94;59.07;102719.22;2283661;77;22538;-75
2023/01/25 09:29:46;;;;;;;;;;;;;;;18.01;58.86;102718.58;2253570;78;50361;-75
2023/01/25 09:32:50;;;;;;;;;;;;;;;18.07;58.67;102709.16;2283243;78;50383;-75
2023/01/25 09:35:52;;;;;;;;;;;;;;;18.06;58.64;102713.68;2253074;78;51525;-75
2023/01/25 09:38:54;;;;;;;;;;;;;;;18.13;58.53;102705.11;2259163;77;50982;-75
2023/01/25 09:42:04;;;;;;;;;;;;;;;18.15;58.45;102706.69;2266738;77;50023;-76
2023/01/25 09:45:16;;;;;;;;;;;;;;;18.15;58.38;102699.98;2286586;78;50348;-76
2023/01/25 09:48:22;;;;;;;;;;;;;;;18.15;58.35;102700.48;2287085;77;50804;-75
2023/01/25 09:51:29;;;;;;;;;;;;;;;18.11;58.37;102696.34;2243219;78;51814;-74
2023/01/25 09:54:30;;;;;;;;;;;;;;;18.04;58.48;102691.52;2280256;77;50820;-74
2023/01/25 09:57:36;;;;;;;;;;;;;;;18.04;58.50;102685.32;2296099;77;52369;-75
2023/01/25 10:00:40;;;;;;;;;;;;;;;18.01;58.49;102686.92;2272812;78;51551;-76
2023/01/25 10:03:43;;;;;;;;;;;;;;;17.97;58.51;102690.33;2278887;77;52479;-76
2023/01/25 10:06:46;;;;;;;;;;;;;;;17.95;58.50;102688.27;2314216;76;51418;-74
2023/01/25 10:09:49;;;;;;;;;;;;;;;17.90;58.68;102678.92;2298163;77;50646;-74
2023/01/25 10:12:51;;;;;;;;;;;;;;;17.93;58.55;102680.87;2272479;78;51514;-74
2023/01/25 10:15:53;;;;;;;;;;;;;;;17.95;58.49;102674.88;2237595;77;52543;-75
2023/01/25 10:19:08;;;;;;;;;;;;;;;18.01;58.32;102673.03;2274459;77;51492;-74
2023/01/25 10:22:29;;;;;;;;;;;;;;;18.11;58.14;102662.40;2260188;77;51610;-76
2023/01/25 10:25:38;;;;;;;;;;;;;;;18.12;58.02;102655.20;2252514;79;51580;-74
2023/01/25 10:28:46;;;;;;;;;;;;;;;18.16;57.93;102655.28;2268367;77;50394;-75
2023/01/25 10:31:52;;;;;;;;;;;;;;;18.15;57.96;102648.23;2264130;77;50241;-75
2023/01/25 10:34:53;;;;;;;;;;;;;;;18.11;57.98;102644.11;2289339;76;22369;-75
2023/01/25 10:37:56;;;;;;;;;;;;;;;18.11;57.94;102634.73;2293435;77;52400;-74
2023/01/25 10:41:01;;;;;;;;;;;;;;;18.01;58.16;102630.67;2276670;77;50007;-73
2023/01/25 10:44:22;;;;;;;;;;;;;;;18.01;58.14;102628.00;2282540;77;51558;-74
2023/01/25 10:47:27;;;;;;;;;;;;;;;17.98;58.15;102633.13;2266607;77;51527;-75
2023/01/25 10:50:45;;;;;;;;;;;;;;;17.94;58.27;102616.09;2277151;77;50687;-74
2023/01/25 10:53:46;;;;;;;;;;;;;;;17.93;58.28;102625.97;2277142;77;22349;-74
2023/01/25 10:56:47;;;;;;;;;;;;;;;17.91;58.31;102618.55;2255175;77;50388;-74
2023/01/25 10:59:50;;;;;;;;;;;;;;;17.92;58.30;102613.54;2299347;77;50303;-74
2023/01/25 11:02:52;;;;;;;;;;;;;;;18.00;58.10;102599.49;2298575;77;51613;-74
2023/01/25 11:05:54;;;;;;;;;;;;;;;18.04;57.98;102601.78;2302750;77;49640;-74
2023/01/25 11:08:56;;;;;;;;;;;;;;;18.10;57.85;102605.76;2302777;77;51599;-74
2023/01/25 11:11:58;;;;;;;;;;;;;;;18.17;57.64;102596.22;2298656;77;50299;-75
2023/01/25 11:15:00;;;;;;;;;;;;;;;18.20;57.55;102583.05;2312337;76;51544;-74
2023/01/25 11:18:05;;;;;;;;;;;;;;;18.19;57.59;102584.88;2309201;76;51410;-74
2023/01/25 11:21:18;;;;;;;;;;;;;;;18.23;57.46;102588.12;2293722;77;51589;-74
2023/01/25 11:24:20;;;;;;;;;;;;;;;18.17;57.58;102583.31;2293776;76;50403;-74
2023/01/25 11:27:23;;;;;;;;;;;;;;;18.13;57.65;102571.16;2307390;76;50635;-75
2023/01/25 11:30:25;;;;;;;;;;;;;;;18.12;57.67;102558.26;2316795;76;50785;-75
2023/01/25 11:33:26;;;;;;;;;;;;;;;18.06;57.81;102558.80;2321837;76;51422;-76
2023/01/25 11:36:42;;;;;;;;;;;;;;;18.00;57.95;102550.78;2309078;76;50688;-74
2023/01/25 11:39:45;;;;;;;;;;;;;;;18.04;57.80;102534.81;2294557;76;50283;-75
2023/01/25 11:42:58;;;;;;;;;;;;;;;18.06;57.88;102528.84;2321409;76;51638;-74
2023/01/25 11:46:05;;;;;;;;;;;;;;;18.04;58.01;102517.41;2330485;76;50280;-74
2023/01/25 11:49:11;;;;;;;;;;;;;;;18.11;57.83;102523.09;2319396;76;50670;-74
2023/01/25 11:52:23;;;;;;;;;;;;;;;18.16;57.64;102518.64;2333689;76;50294;-73
2023/01/25 11:55:39;;;;;;;;;;;;;;;18.22;57.63;102508.74;2289610;76;52661;-76
2023/01/25 11:58:57;;;;;;;;;;;;;;;18.31;57.47;102495.02;2283070;76;51508;-74
2023/01/25 12:02:05;;;;;;;;;;;;;;;18.26;57.77;102490.05;2333504;76;50790;-76
2023/01/25 12:05:21;;;;;;;;;;;;;;;18.28;57.86;102482.23;2333795;76;24988;-75
2023/01/25 12:08:41;;;;;;;;;;;;;;;18.19;58.28;102469.67;2333904;76;51491;-77
2023/01/25 12:11:56;;;;;;;;;;;;;;;18.14;58.47;102471.91;2333148;76;52405;-76
2023/01/25 12:15:00;;;;;;;;;;;;;;;18.08;58.77;102455.52;2311891;76;50354;-76
2023/01/25 12:18:21;;;;;;;;;;;;;;;18.05;58.97;102447.26;2295753;77;50733;-74
2023/01/25 12:21:24;;;;;;;;;;;;;;;18.00;59.25;102450.83;2308254;76;51579;-75
2023/01/25 12:24:40;;;;;;;;;;;;;;;17.94;59.61;102441.52;2283039;77;51285;-76
2023/01/25 12:27:52;;;;;;;;;;;;;;;17.93;59.42;102438.49;2299134;77;50849;-78
2023/01/25 12:30:55;;;;;;;;;;;;;;;17.96;59.06;102427.50;2282637;77;50791;-77
2023/01/25 12:34:02;;;;;;;;;;;;;;;18.02;58.83;102417.58;2286230;77;51077;-77
2023/01/25 12:37:06;;;;;;;;;;;;;;;18.03;58.92;102415.73;2249543;78;52313;-78
2023/01/25 12:40:15;;;;;;;;;;;;;;;18.10;58.93;102412.03;2300337;77;51585;-76
2023/01/25 12:43:18;;;;;;;;;;;;;;;18.11;58.93;102410.57;2302129;77;50774;-79
2023/01/25 12:46:33;;;;;;;;;;;;;;;18.10;59.24;102412.03;2285726;77;50647;-77
2023/01/25 12:49:42;;;;;;;;;;;;;;;18.03;59.43;102403.22;2265974;77;51794;-77
2023/01/25 12:52:46;;;;;;;;;;;;;;;18.03;59.29;102401.88;2299584;77;50699;-77
2023/01/25 12:55:49;;;;;;;;;;;;;;;17.98;59.30;102392.06;2295427;77;50750;-77
2023/01/25 12:58:54;;;;;;;;;;;;;;;17.94;59.30;102391.97;2291430;77;50615;-78
2023/01/25 13:01:57;;;;;;;;;;;;;;;17.90;59.35;102383.84;2255604;77;51017;-77
2023/01/25 13:05:03;;;;;;;;;;;;;;;17.85;59.49;102374.02;2302921;77;50691;-78
2023/01/25 13:08:09;;;;;;;;;;;;;;;17.80;59.60;102378.94;2306891;77;50634;-77
2023/01/25 13:11:19;;;;;;;;;;;;;;;17.78;59.61;102374.20;2285439;77;51549;-78
2023/01/25 13:14:36;;;;;;;;;;;;;;;17.82;59.55;102374.30;2263362;77;51028;-78
2023/01/25 13:17:39;;;;;;;;;;;;;;;17.87;59.48;102373.91;2282339;77;49718;-79
2023/01/25 13:20:42;;;;;;;;;;;;;;;17.93;59.34;102377.36;2263586;78;50862;-77
2023/01/25 13:23:49;;;;;;;;;;;;;;;17.97;59.23;102371.60;2275716;77;50794;-79
2023/01/25 13:26:51;;;;;;;;;;;;;;;18.03;59.06;102370.20;2280312;77;21953;-77
2023/01/25 13:30:02;;;;;;;;;;;;;;;18.09;58.98;102358.11;2282409;76;51217;-76
2023/01/25 13:33:05;;;;;;;;;;;;;;;18.09;58.91;102355.44;2270318;77;51272;-76
2023/01/25 13:36:25;;;;;;;;;;;;;;;18.06;58.95;102353.38;2281707;77;50553;-78
2023/01/25 13:39:33;;;;;;;;;;;;;;;18.03;59.02;102346.97;2250299;77;51836;-77
2023/01/25 13:42:32;;;;;;;;;;;;;;;18.00;59.08;102341.02;2291579;77;22370;-77
2023/01/25 13:45:34;;;;;;;;;;;;;;;17.95;59.20;102336.07;2277897;77;50817;-78
2023/01/25 13:48:36;;;;;;;;;;;;;;;17.92;59.24;102339.03;2256162;77;51493;-77
2023/01/25 13:51:38;;;;;;;;;;;;;;;17.86;59.30;102334.23;2258198;78;51661;-77
2023/01/25 13:54:44;;;;;;;;;;;;;;;17.84;59.31;102323.65;2277607;77;50749;-77
2023/01/25 13:57:46;;;;;;;;;;;;;;;17.84;59.46;102323.65;2291191;75;50771;-76
2023/01/25 14:00:57;;;;;;;;;;;;;;;17.86;59.42;102314.15;2274420;77;50707;-76
2023/01/25 14:04:00;;;;;;;;;;;;;;;17.92;59.50;102314.92;2282090;77;50056;-77
2023/01/25 14:07:08;;;;;;;;;;;;;;;17.99;59.29;102308.04;2280564;77;51388;-78
2023/01/25 14:10:07;;;;;;;;;;;;;;;18.04;59.07;102308.47;2295186;77;22243;-76
2023/01/25 14:13:10;;;;;;;;;;;;;;;17.98;56.14;102306.83;2292143;77;50221;-74
2023/01/25 14:16:12;;;;;;;;;;;;;;;17.91;55.60;102293.66;2275529;77;51305;-74
2023/01/25 14:19:24;;;;;;;;;;;;;;;17.99;55.52;102302.68;2289029;77;50279;-75
2023/01/25 14:22:29;;;;;;;;;;;;;;;18.02;55.65;102293.02;2267504;77;51563;-75
2023/01/25 14:25:32;;;;;;;;;;;;;;;18.03;55.91;102293.39;2288039;77;51626;-76
2023/01/25 14:28:33;;;;;;;;;;;;;;;17.97;56.48;102291.25;2303311;77;49613;-75
2023/01/25 14:31:35;;;;;;;;;;;;;;;17.97;56.98;102295.27;2268170;77;50634;-76
2023/01/25 14:34:37;;;;;;;;;;;;;;;17.91;57.33;102285.13;2265165;78;51793;-75
2023/01/25 14:37:40;;;;;;;;;;;;;;;17.88;58.07;102281.86;2281410;77;50640;-77
2023/01/25 14:40:42;;;;;;;;;;;;;;;17.91;58.00;102279.77;2248939;77;50485;-76
2023/01/25 14:43:54;;;;;;;;;;;;;;;17.98;58.02;102273.34;2288899;77;50384;-75
2023/01/25 14:47:14;;;;;;;;;;;;;;;18.05;57.95;102270.47;2287795;77;50481;-76
2023/01/25 14:50:33;;;;;;;;;;;;;;;18.12;57.65;102269.43;2272007;77;50027;-76
2023/01/25 14:53:34;;;;;;;;;;;;;;;18.20;57.51;102260.19;2256826;78;51317;-77
2023/01/25 14:56:46;;;;;;;;;;;;;;;18.26;57.46;102256.47;2272206;77;50614;-76
2023/01/25 14:59:49;;;;;;;;;;;;;;;18.29;57.51;102256.67;2278754;77;50498;-76
2023/01/25 15:02:55;;;;;;;;;;;;;;;18.39;57.18;102249.95;2279567;77;50292;-76
2023/01/25 15:05:57;;;;;;;;;;;;;;;18.44;57.16;102239.14;2276569;77;51799;-76
2023/01/25 15:08:59;;;;;;;;;;;;;;;18.42;57.19;102241.14;2285801;77;50661;-76
2023/01/25 15:12:01;;;;;;;;;;;;;;;18.43;57.17;102232.10;2298845;77;51532;-76
2023/01/25 15:15:04;;;;;;;;;;;;;;;18.41;57.29;102234.08;2280655;77;50678;-76
2023/01/25 15:18:06;;;;;;;;;;;;;;;18.36;57.45;102224.28;2278564;76;50762;-76
2023/01/25 15:21:09;;;;;;;;;;;;;;;18.34;57.49;102220.05;2265610;78;51426;-75
2023/01/25 15:24:11;;;;;;;;;;;;;;;18.28;57.73;102224.15;2280365;77;49953;-76
2023/01/25 15:27:12;;;;;;;;;;;;;;;18.22;57.93;102218.03;2297413;77;51518;-76
2023/01/25 15:30:15;;;;;;;;;;;;;;;18.14;58.40;102223.27;2282772;77;51406;-79
2023/01/25 15:33:21;;;;;;;;;;;;;;;18.10;58.57;102211.97;2269812;77;23309;-76
2023/01/25 15:36:23;;;;;;;;;;;;;;;17.96;56.48;102209.23;2287283;77;51436;-76
2023/01/25 15:39:25;;;;;;;;;;;;;;;18.02;56.73;102209.99;2276584;77;50688;-75
2023/01/25 15:42:27;;;;;;;;;;;;;;;18.15;56.55;102194.97;2280764;77;50411;-76
2023/01/25 15:45:29;;;;;;;;;;;;;;;18.14;56.83;102196.47;2296687;77;49927;-78
2023/01/25 15:48:32;;;;;;;;;;;;;;;18.21;57.02;102205.14;2276367;77;50248;-75